Flight Track Log - Related Links

Times and Time Zones

All times are in EDT time to prevent confusion due to time zone crossing. See the N20AZ flight status page for this flight to view local times or setup timezone preferences in your user account.

Time Position Orientation Groundspeed Altitude Reporting Facility
EDT Latitude Longitude Course Direction KTS MPH feet Rate Location/Type
Sun 10:10:22 AM 27.3833 -82.5667 318° Northwest 110 127 400  Level Tampa TRACON
Sun 10:11:11 AM 27.4000 -82.5833 318° Northwest 129 148 800 522 Climbing Tampa TRACON
Sun 10:12:17 AM 27.4333 -82.6167 318° Northwest 131 151 1,400 550 Climbing Tampa TRACON
Sun 10:13:11 AM 27.4500 -82.6333 318° Northwest 133 153 1,900 300 Climbing Tampa TRACON
Sun 10:14:17 AM 27.4833 -82.6667 318° Northwest 145 167 2,000 286 Climbing Tampa TRACON
Sun 10:15:17 AM 27.5167 -82.6833 336° Northwest 130 150 2,500 500 Climbing Tampa TRACON
Sun 10:16:17 AM 27.5500 -82.7000 336° Northwest 130 150 3,000 526 Climbing Tampa TRACON
Sun 10:17:11 AM 27.5833 -82.7333 318° Northwest 127 146 3,500 611 Climbing Tampa TRACON
Sun 10:18:05 AM 27.6000 -82.7500 318° Northwest 124 143 4,100 650 Climbing Tampa TRACON
Sun 10:19:11 AM 27.6333 -82.7667 336° Northwest 119 137 4,800 364 Climbing Tampa TRACON
Sun 10:20:17 AM 27.6667 -82.8000 318° Northwest 142 163 4,900 48 Climbing Tampa TRACON
Sun 10:21:17 AM 27.7000 -82.8167 336° Northwest 153 176 4,900  Level Tampa TRACON
Sun 10:22:05 AM 27.7333 -82.8500 318° Northwest 152 175 4,900  Level Tampa TRACON
Sun 10:23:17 AM 27.7833 -82.8500 360° North 163 188 4,900  Level Tampa TRACON
Sun 10:24:17 AM 27.8333 -82.8667 344° North 162 186 4,900  Level Tampa TRACON
Sun 10:25:11 AM 27.8667 -82.8667 360° North 162 186 4,900  Level Tampa TRACON
Sun 10:26:12 AM 27.9167 -82.8667 360° North 159 183 4,900  Level Tampa TRACON
Sun 10:27:12 AM 27.9667 -82.8667 360° North 158 182 4,900  Level Tampa TRACON
Sun 10:28:12 AM 28.0000 -82.8667 360° North 156 180 4,900  Level Tampa TRACON
Sun 10:29:12 AM 28.0500 -82.8833 344° North 159 183 4,900  Level Tampa TRACON
Sun 10:30:12 AM 28.0833 -82.8833 360° North 165 190 4,900  Level Tampa TRACON
Sun 10:31:12 AM 28.1333 -82.8833 360° North 157 181 4,900  Level Tampa TRACON
Sun 10:32:06 AM 28.1667 -82.9000 336° Northwest 155 178 4,900 105 Level Tampa TRACON
Sun 10:34:04 AM 28.2481 -82.9161 350° North 146 168 5,200 236 Climbing Jacksonville Center
Sun 10:35:04 AM 28.2856 -82.9233 350° North 146 168 5,600 350 Climbing Jacksonville Center
Sun 10:36:04 AM 28.3211 -82.9372 341° North 146 168 5,900 350 Climbing Jacksonville Center
Sun 10:37:04 AM 28.3586 -82.9467 348° North 146 168 6,300 400 Climbing Jacksonville Center
Sun 10:38:04 AM 28.3961 -82.9564 347° North 146 168 6,700 400 Climbing Jacksonville Center
Sun 10:39:04 AM 28.4336 -82.9633 351° North 141 162 7,100 400 Climbing Jacksonville Center
Sun 10:40:04 AM 28.4692 -82.9728 347° North 141 162 7,500 400 Climbing Jacksonville Center
Sun 10:41:04 AM 28.5067 -82.9822 348° North 136 157 7,900 150 Climbing Jacksonville Center
Sun 10:42:04 AM 28.5464 -82.9967 342° North 136 157 7,800  Descending Jacksonville Center
Sun 10:43:04 AM 28.5881 -83.0036 352° North 141 162 7,900 50 Climbing Jacksonville Center
Sun 10:44:04 AM 28.6319 -83.0108 352° North 147 169 7,900  Level Jacksonville Center
Sun 10:45:04 AM 28.6736 -83.0250 343° North 147 169 7,900  Level Jacksonville Center
Sun 10:46:04 AM 28.7133 -83.0369 345° North 147 169 7,900  Level Jacksonville Center
Sun 10:47:04 AM 28.7572 -83.0511 344° North 147 169 7,900  Level Jacksonville Center
Sun 10:48:04 AM 28.8008 -83.0608 349° North 147 169 7,900  Level Jacksonville Center
Sun 10:49:04 AM 28.8406 -83.0728 345° North 147 169 7,900  Level Jacksonville Center
Sun 10:50:04 AM 28.8844 -83.0822 349° North 147 169 7,900  Level Jacksonville Center
Sun 10:51:04 AM 28.9239 -83.0967 342° North 147 169 7,900  Level Jacksonville Center
Sun 10:52:04 AM 28.9678 -83.1086 347° North 147 169 7,900  Level Jacksonville Center
Sun 10:53:04 AM 29.0094 -83.1181 349° North 147 169 7,900  Level Jacksonville Center
Sun 10:54:04 AM 29.0514 -83.1300 346° North 147 169 7,900  Level Jacksonville Center
Sun 10:55:04 AM 29.0931 -83.1397 348° North 147 169 7,900  Level Jacksonville Center
Sun 10:56:04 AM 29.1347 -83.1517 346° North 147 169 7,900  Level Jacksonville Center
Sun 10:57:04 AM 29.1786 -83.1636 347° North 147 169 7,900 50 Level Jacksonville Center
Sun 10:58:04 AM 29.2203 -83.1758 346° North 147 169 8,000  Climbing Jacksonville Center
Sun 10:59:04 AM 29.2619 -83.1878 346° North 147 169 7,900 -50 Descending Jacksonville Center
Sun 11:00:04 AM 29.3017 -83.1975 348° North 152 175 7,900  Level Jacksonville Center
Sun 11:01:04 AM 29.3350 -83.2236 326° Northwest 152 175 7,900  Level Jacksonville Center
Sun 11:02:04 AM 29.3725 -83.2500 328° Northwest 152 175 7,900  Level Jacksonville Center
Sun 11:03:04 AM 29.4078 -83.2739 329° Northwest 152 175 7,900  Level Jacksonville Center
Sun 11:04:04 AM 29.4453 -83.2981 331° Northwest 152 175 7,900  Level Jacksonville Center
Sun 11:05:04 AM 29.4808 -83.3197 332° Northwest 152 175 7,900  Level Jacksonville Center
Sun 11:06:04 AM 29.5225 -83.3317 346° North 147 169 7,900  Level Jacksonville Center
Sun 11:07:04 AM 29.5642 -83.3414 349° North 147 169 7,900  Level Jacksonville Center
Sun 11:08:04 AM 29.6081 -83.3536 346° North 147 169 7,900  Level Jacksonville Center
Sun 11:09:04 AM 29.6497 -83.3633 349° North 147 169 7,900 50 Level Jacksonville Center
Sun 11:10:04 AM 29.6936 -83.3731 349° North 147 169 8,000  Climbing Jacksonville Center
Sun 11:11:04 AM 29.7375 -83.3828 349° North 152 175 7,900 -50 Descending Jacksonville Center
Sun 11:12:04 AM 29.7792 -83.3975 343° North 152 175 7,900  Level Jacksonville Center
Sun 11:13:04 AM 29.8186 -83.4072 348° North 152 175 7,900  Level Jacksonville Center
Sun 11:14:04 AM 29.8625 -83.4172 349° North 152 175 7,900  Level Jacksonville Center
Sun 11:15:04 AM 29.9022 -83.4269 348° North 147 169 7,900  Level Jacksonville Center
Sun 11:16:04 AM 29.9439 -83.4392 346° North 147 169 7,900  Level Jacksonville Center
Sun 11:17:04 AM 29.9856 -83.4489 349° North 147 169 7,900  Level Jacksonville Center
Sun 11:18:04 AM 30.0294 -83.4589 349° North 147 169 7,900  Level Jacksonville Center
Sun 11:19:04 AM 30.0711 -83.4711 346° North 147 169 7,900  Level Jacksonville Center
Sun 11:20:04 AM 30.1147 -83.4833 346° North 147 169 7,900  Level Jacksonville Center
Sun 11:21:04 AM 30.1567 -83.4931 349° North 147 169 7,900  Level Jacksonville Center
Sun 11:22:04 AM 30.2003 -83.5031 349° North 147 169 7,900  Level Jacksonville Center
Sun 11:23:04 AM 30.2419 -83.5153 346° North 147 169 7,900  Level Jacksonville Center
Sun 11:24:04 AM 30.2858 -83.5253 349° North 147 169 7,900  Level Jacksonville Center
Sun 11:25:04 AM 30.3275 -83.5350 349° North 147 169 7,900 50 Level Jacksonville Center
Sun 11:26:04 AM 30.3692 -83.5450 348° North 147 169 8,000  Climbing Jacksonville Center
Sun 11:26:40 AM 30.3983 -83.5547 344° North 156 180 7,900 -63 Descending Jacksonville Center
Sun 11:27:40 AM 30.4381 -83.5672 345° North 154 177 7,900  Level Jacksonville Center
Sun 11:28:41 AM 30.4817 -83.5794 346° North 156 180 7,900  Level Jacksonville Center
Sun 11:29:48 AM 30.5297 -83.5872 352° North 153 176 7,900  Level Jacksonville Center
Sun 11:30:54 AM 30.5778 -83.6019 345° North 153 176 7,900  Level Jacksonville Center
Sun 11:31:55 AM 30.6131 -83.6142 343° North 148 170 7,900  Level Jacksonville Center
Sun 11:32:56 AM 30.6589 -83.6267 347° North 154 177 7,900  Level Jacksonville Center
Sun 11:33:04 AM 30.6589 -83.6267 347° North 148 170 7,900  Level Jacksonville Center
Sun 11:33:56 AM 30.7008 -83.6319 354° North 154 177 7,900  Level Jacksonville Center
Sun 11:35:04 AM 30.7425 -83.6467 343° North 148 170 7,900  Level Jacksonville Center
Sun 11:35:57 AM 30.7800 -83.6614 341° North 152 175 7,900  Level Jacksonville Center
Sun 11:37:04 AM 30.8278 -83.6692 352° North 153 176 7,900  Level Jacksonville Center
Sun 11:38:05 AM 30.8717 -83.6817 346° North 150 173 7,900  Level Jacksonville Center
Sun 11:39:05 AM 30.9092 -83.6939 344° North 151 174 7,900  Level Jacksonville Center
Sun 11:40:06 AM 30.9531 -83.7067 346° North 154 177 7,900  Level Jacksonville Center
Sun 11:42:07 AM 31.0383 -83.7242 350° North 151 174 7,900  Level Jacksonville Center
Sun 11:43:08 AM 31.0758 -83.7367 344° North 151 174 7,900  Level Jacksonville Center
Sun 11:44:09 AM 31.1197 -83.7444 351° North 153 176 7,900  Level Jacksonville Center
Sun 11:45:09 AM 31.1592 -83.7569 345° North 150 173 7,900  Level Jacksonville Center
Sun 11:46:16 AM 31.2011 -83.7669 348° North 149 171 7,900 47 Level Jacksonville Center
Sun 11:47:16 AM 31.2447 -83.7769 349° North 154 177 8,000  Climbing Jacksonville Center
Sun 11:48:16 AM 31.2844 -83.7872 348° North 154 177 7,900 -50 Descending Jacksonville Center
Sun 11:49:16 AM 31.3261 -83.7997 346° North 154 177 7,900  Level Jacksonville Center
Sun 11:50:16 AM 31.3656 -83.8100 347° North 149 171 7,900 33 Level Jacksonville Center
Sun 11:52:16 AM 31.4533 -83.8131 358° North 144 166 8,000  Climbing Jacksonville Center
Sun 11:53:16 AM 31.4950 -83.8064 North 144 166 7,900  Descending Jacksonville Center
Sun 11:54:16 AM 31.5325 -83.8164 347° North 144 166 8,000 50 Climbing Jacksonville Center
Sun 11:55:16 AM 31.5722 -83.8339 339° North 139 160 8,000  Level Jacksonville Center
Sun 11:57:16 AM 31.6494 -83.8467 352° North 145 167 8,000  Level Jacksonville Center
Sun 11:58:16 AM 31.6953 -83.8594 347° North 145 167 8,000  Level Jacksonville Center
Sun 11:59:16 AM 31.7369 -83.8697 348° North 145 167 8,000  Level Jacksonville Center
Sun 12:00:16 PM 31.7744 -83.8822 344° North 145 167 8,000  Level Jacksonville Center
Sun 12:02:00 PM 31.8413 -83.9148 338° Northwest  Level FlightAware Approximate
Sun 12:04:08 PM 31.9333 -83.9333 346° North 149 171 8,000  Level Atlanta TRACON
Sun 12:05:08 PM 31.9833 -83.9333 360° North 152 175 8,000  Level Atlanta TRACON
Sun 12:06:08 PM 32.0167 -83.9500 337° Northwest 154 177 8,000  Level Atlanta TRACON
Sun 12:08:02 PM 32.0833 -83.9667 348° North 146 168 8,000  Level Atlanta TRACON
Sun 12:09:00 PM 32.1166 -84.0358 346° North  Level FlightAware Approximate
Sun 12:09:02 PM 32.1333 -83.9833 344° North 148 170 8,000  Level Atlanta TRACON
Sun 12:11:02 PM 32.2167 -84.0167 341° North 144 166 8,000  Level Atlanta TRACON
Sun 12:12:08 PM 32.2500 -84.0167 360° North 150 173 8,000 -48 Level Atlanta TRACON
Sun 12:13:08 PM 32.3000 -84.0333 344° North 153 176 7,900 -150 Descending Atlanta TRACON
Sun 12:14:08 PM 32.3333 -84.0500 337° Northwest 152 175 7,700 -400 Descending Atlanta TRACON
Sun 12:15:08 PM 32.3833 -84.0500 360° North 162 186 7,100 -600 Descending Atlanta TRACON
Sun 12:16:08 PM 32.4167 -84.0667 337° Northwest 159 183 6,500 -526 Descending Atlanta TRACON
Sun 12:17:02 PM 32.4667 -84.0833 344° North 158 182 6,100 -300 Descending Atlanta TRACON
Sun 12:18:08 PM 32.5000 -84.1000 337° Northwest 145 167 5,900 -32 Descending Atlanta TRACON
Sun 12:20:08 PM 32.5833 -84.1167 350° North 144 166 6,000 20 Climbing Atlanta TRACON
Sun 12:22:00 PM 32.6573 -84.1443 343° North  Level FlightAware Approximate
Sun 12:23:08 PM 32.7000 -84.1000 343° North 149 171 6,000  Level Atlanta TRACON
Sun 12:25:08 PM 32.7833 -84.1167 350° North 148 170 6,000  Level Atlanta TRACON
Sun 12:27:08 PM 32.8667 -84.1333 350° North 146 168 6,000  Level Atlanta TRACON
Sun 12:28:08 PM 32.9000 -84.1500 337° Northwest 149 171 6,000  Level Atlanta TRACON
Sun 12:29:02 PM 32.9333 -84.1667 337° Northwest 148 170 6,000  Level Atlanta TRACON
Sun 12:30:02 PM 32.9667 -84.1833 337° Northwest 146 168 6,000  Level Atlanta TRACON
Sun 12:31:08 PM 33.0167 -84.2000 344° North 140 161 6,000  Level Atlanta TRACON
Sun 12:32:08 PM 33.0500 -84.2167 337° Northwest 143 165 6,000  Level Atlanta TRACON
Sun 12:33:02 PM 33.0833 -84.2167 360° North 144 166 6,000 -53 Level Atlanta TRACON
Sun 12:34:02 PM 33.1333 -84.2333 344° North 141 162 5,900 -333 Descending Atlanta TRACON
Sun 12:35:08 PM 33.1667 -84.2500 337° Northwest 148 170 5,300 -476 Descending Atlanta TRACON
Sun 12:36:08 PM 33.2167 -84.2667 344° North 147 169 4,900 -200 Descending Atlanta TRACON
Sun 12:37:08 PM 33.2500 -84.2833 337° Northwest 143 165 4,900  Level Atlanta TRACON
Sun 12:38:08 PM 33.2833 -84.3000 337° Northwest 143 165 4,900  Level Atlanta TRACON
Sun 12:39:02 PM 33.3167 -84.3167 337° Northwest 143 165 4,900  Level Atlanta TRACON
Sun 12:40:08 PM 33.3667 -84.3333 344° North 143 165 4,900  Level Atlanta TRACON
Sun 12:41:08 PM 33.4000 -84.3500 337° Northwest 145 167 4,900  Level Atlanta TRACON
Sun 12:42:08 PM 33.4333 -84.3667 337° Northwest 144 166 4,900  Level Atlanta TRACON
Sun 12:43:02 PM 33.4667 -84.3667 360° North 145 167 4,900  Level Atlanta TRACON
Sun 12:44:02 PM 33.5167 -84.3667 360° North 147 169 4,900  Level Atlanta TRACON
Sun 12:45:02 PM 33.5500 -84.3833 337° Northwest 146 168 4,900  Level Atlanta TRACON
Sun 12:46:08 PM 33.6000 -84.3667 16° North 146 168 4,900  Level Atlanta TRACON
Sun 12:47:03 PM 33.6333 -84.3833 337° Northwest 150 173 4,900  Level Atlanta TRACON
Sun 12:48:08 PM 33.6833 -84.3833 360° North 145 167 4,900  Level Atlanta TRACON
Sun 12:49:03 PM 33.7167 -84.3833 360° North 142 163 4,900  Level Atlanta TRACON
Sun 12:50:03 PM 33.7500 -84.4000 337° Northwest 145 167 4,900  Level Atlanta TRACON
Sun 12:51:03 PM 33.8000 -84.4000 360° North 144 166 4,900  Level Atlanta TRACON
Sun 12:52:03 PM 33.8333 -84.4000 360° North 147 169 4,900  Level Atlanta TRACON
Sun 12:53:03 PM 33.8667 -84.4167 337° Northwest 147 169 4,900 -250 Level Atlanta TRACON
Sun 12:54:03 PM 33.9167 -84.4167 360° North 151 174 4,400 -700 Descending Atlanta TRACON
Sun 12:55:03 PM 33.9500 -84.4333 337° Northwest 155 178 3,500 -667 Descending Atlanta TRACON
Sun 12:56:09 PM 33.9833 -84.4833 309° West 155 178 3,000 -762 Descending Atlanta TRACON
Sun 12:57:09 PM 34.0000 -84.5167 301° West 143 165 1,900 -800 Descending Atlanta TRACON
Sun 12:58:09 PM 34.0167 -84.5667 292° West 118 136 1,400 -500 Descending Atlanta TRACON

Login

Don't have an account? Register now (free) for customized features, flight alerts, and more!